createdAt,value
2023-03-24T00:00:23.069Z,4.60
2023-03-24T00:02:51.304Z,4.03
2023-03-24T00:05:20.764Z,4.20
2023-03-24T00:07:48.104Z,4.05
2023-03-24T00:10:17.234Z,4.30
2023-03-24T00:12:44.884Z,4.65
2023-03-24T00:15:15.529Z,4.53
2023-03-24T00:20:16.179Z,4.05
2023-03-24T00:22:44.488Z,5.22
2023-03-24T00:25:11.296Z,4.32
2023-03-24T00:27:38.398Z,5.05
2023-03-24T00:30:07.709Z,4.50
2023-03-24T00:32:35.422Z,4.40
2023-03-24T00:35:01.828Z,4.50
2023-03-24T00:37:28.524Z,4.93
2023-03-24T00:39:55.015Z,5.28
2023-03-24T00:42:21.489Z,4.53
2023-03-24T00:44:47.886Z,4.05
2023-03-24T00:47:14.342Z,3.92
2023-03-24T00:49:40.878Z,4.38
2023-03-24T00:52:18.514Z,4.15
2023-03-24T00:54:45.306Z,4.18
2023-03-24T00:57:13.811Z,4.20
2023-03-24T00:59:40.620Z,4.43
2023-03-24T01:02:07.171Z,3.47
2023-03-24T01:04:33.565Z,4.25
2023-03-24T01:06:59.998Z,4.13
2023-03-24T01:09:26.385Z,3.85
2023-03-24T01:11:52.742Z,3.80
2023-03-24T01:14:19.145Z,4.32
2023-03-24T01:16:45.580Z,5.15
2023-03-24T01:19:12.007Z,4.18
2023-03-24T01:21:39.809Z,3.58
2023-03-24T01:24:06.726Z,4.20
2023-03-24T01:26:33.340Z,4.55
2023-03-24T01:29:00.101Z,4.00
2023-03-24T01:31:26.909Z,4.63
2023-03-24T01:33:53.643Z,5.07
2023-03-24T01:36:20.161Z,4.35
2023-03-24T01:38:46.921Z,4.40
2023-03-24T01:41:13.391Z,4.63
2023-03-24T01:43:40.334Z,4.70
2023-03-24T01:46:19.098Z,4.45
2023-03-24T01:48:49.574Z,4.18
2023-03-24T01:51:29.854Z,4.85
2023-03-24T01:54:02.636Z,4.40
2023-03-24T01:56:35.484Z,3.40
2023-03-24T01:59:06.730Z,3.92
2023-03-24T02:01:33.884Z,5.22
2023-03-24T02:04:03.021Z,4.50
2023-03-24T02:06:31.024Z,5.18
2023-03-24T02:08:59.505Z,4.55
2023-03-24T02:11:29.964Z,4.93
2023-03-24T02:13:56.995Z,4.65
2023-03-24T02:16:35.654Z,4.65
2023-03-24T02:19:34.921Z,4.47
2023-03-24T02:22:18.547Z,4.10
2023-03-24T02:24:57.288Z,4.00
2023-03-24T02:27:57.388Z,4.05
2023-03-24T02:30:34.605Z,4.10
2023-03-24T02:33:45.801Z,4.30
2023-03-24T02:36:24.423Z,4.03
2023-03-24T02:39:09.493Z,3.90
2023-03-24T02:41:48.996Z,4.53
2023-03-24T02:44:32.462Z,3.97
2023-03-24T02:47:09.798Z,4.30
2023-03-24T02:49:45.398Z,4.20
2023-03-24T02:52:32.991Z,3.83
2023-03-24T02:55:19.620Z,3.85
2023-03-24T02:58:02.193Z,4.03
2023-03-24T03:00:35.788Z,4.07
2023-03-24T03:03:08.382Z,4.13
2023-03-24T03:05:40.687Z,3.92
2023-03-24T03:08:12.257Z,4.53
2023-03-24T03:10:43.472Z,4.43
2023-03-24T03:13:44.419Z,4.32
2023-03-24T03:16:18.692Z,3.80
2023-03-24T03:18:51.414Z,4.38
2023-03-24T03:21:22.981Z,4.00
2023-03-24T03:23:59.050Z,4.10
2023-03-24T03:26:28.254Z,4.07
2023-03-24T03:29:01.784Z,5.03
2023-03-24T03:31:54.836Z,4.47
2023-03-24T03:34:55.384Z,4.45
2023-03-24T03:37:53.157Z,3.58
2023-03-24T03:40:32.937Z,3.97
2023-03-24T03:42:59.594Z,3.30
2023-03-24T03:45:26.061Z,2.80
2023-03-24T03:47:52.598Z,3.20
2023-03-24T03:50:18.978Z,3.90
2023-03-24T03:52:45.770Z,3.42
2023-03-24T03:55:14.853Z,2.90
2023-03-24T03:57:42.793Z,3.30
2023-03-24T04:00:15.837Z,3.60
2023-03-24T04:03:13.050Z,3.42
2023-03-24T04:05:48.483Z,3.05
2023-03-24T04:08:21.146Z,2.95
2023-03-24T04:10:50.794Z,3.25
2023-03-24T04:13:30.127Z,3.10
2023-03-24T04:16:27.890Z,3.10
2023-03-24T04:19:09.203Z,3.30
2023-03-24T04:22:06.233Z,3.97
2023-03-24T04:25:02.669Z,3.17
2023-03-24T04:27:43.737Z,3.92
2023-03-24T04:30:47.408Z,4.07
2023-03-24T04:33:19.144Z,3.80
2023-03-24T04:35:51.014Z,3.72
2023-03-24T04:38:21.894Z,3.80
2023-03-24T04:43:20.413Z,3.65
2023-03-24T04:45:48.134Z,4.07
2023-03-24T04:48:16.297Z,3.80
2023-03-24T04:50:44.590Z,3.42
2023-03-24T04:53:11.407Z,4.22
2023-03-24T04:55:50.014Z,3.97
2023-03-24T04:58:18.757Z,4.03
2023-03-24T05:00:45.817Z,4.80
2023-03-24T05:03:14.558Z,4.50
2023-03-24T05:05:42.665Z,4.50
2023-03-24T05:08:09.880Z,3.97
2023-03-24T05:10:36.981Z,4.38
2023-03-24T05:13:06.720Z,5.22
2023-03-24T05:15:33.677Z,4.43
2023-03-24T05:18:00.385Z,4.05
2023-03-24T05:20:27.098Z,4.35
2023-03-24T05:22:54.038Z,4.30
2023-03-24T05:25:20.740Z,4.20
2023-03-24T05:27:47.967Z,4.30
2023-03-24T05:30:15.516Z,5.07
2023-03-24T05:32:42.426Z,4.75
2023-03-24T05:35:09.251Z,4.43
2023-03-24T05:37:35.765Z,5.45
2023-03-24T05:40:02.668Z,8.15
2023-03-24T05:42:29.023Z,7.70
2023-03-24T05:44:55.351Z,8.35
2023-03-24T05:47:22.183Z,5.07
2023-03-24T05:49:48.791Z,3.70
2023-03-24T05:52:15.292Z,2.45
2023-03-24T05:54:42.076Z,2.50
2023-03-24T05:57:12.025Z,2.78
2023-03-24T05:59:38.414Z,2.83
2023-03-24T06:02:05.046Z,2.47
2023-03-24T06:04:31.783Z,2.35
2023-03-24T06:06:58.618Z,2.75
2023-03-24T06:09:29.542Z,2.85
2023-03-24T06:11:56.438Z,3.45
2023-03-24T06:14:22.795Z,2.90
2023-03-24T06:16:49.288Z,3.10
2023-03-24T06:19:17.323Z,3.50
2023-03-24T06:21:43.888Z,3.45
2023-03-24T06:24:11.051Z,3.72
2023-03-24T06:26:37.709Z,3.80
2023-03-24T06:29:04.275Z,4.57
2023-03-24T06:31:31.038Z,3.97
2023-03-24T06:33:57.492Z,5.05
2023-03-24T06:36:24.029Z,3.08
2023-03-24T06:38:51.062Z,3.88
2023-03-24T06:41:17.941Z,3.40
2023-03-24T06:43:44.379Z,3.55
2023-03-24T06:46:11.045Z,3.83
2023-03-24T06:48:37.693Z,3.90
2023-03-24T06:51:04.714Z,3.60
2023-03-24T06:53:31.192Z,3.78
2023-03-24T06:55:57.989Z,3.90
2023-03-24T06:58:24.417Z,3.40
2023-03-24T07:00:50.933Z,3.47
2023-03-24T07:03:17.785Z,4.00
2023-03-24T07:05:45.182Z,3.30
2023-03-24T07:10:42.229Z,3.10
2023-03-24T07:13:08.799Z,3.38
2023-03-24T07:15:35.908Z,3.33
2023-03-24T07:18:02.357Z,3.40
2023-03-24T07:20:28.965Z,3.58
2023-03-24T07:22:56.912Z,3.38
2023-03-24T07:25:24.134Z,3.80
2023-03-24T07:27:54.251Z,2.90
2023-03-24T07:30:27.311Z,2.90
2023-03-24T07:33:00.042Z,2.90
2023-03-24T07:35:26.628Z,3.55
2023-03-24T07:37:52.975Z,3.20
2023-03-24T07:40:19.516Z,2.90
2023-03-24T07:42:45.860Z,3.47
2023-03-24T07:45:13.326Z,3.05
2023-03-24T07:47:44.635Z,3.00
2023-03-24T07:50:12.619Z,3.15
2023-03-24T07:52:46.663Z,3.00
2023-03-24T07:55:13.174Z,3.10
2023-03-24T07:57:46.154Z,3.13
2023-03-24T08:00:13.401Z,3.00
2023-03-24T08:02:39.832Z,3.25
2023-03-24T08:05:06.585Z,3.20
2023-03-24T08:07:32.967Z,3.70
2023-03-24T08:09:59.335Z,3.38
2023-03-24T08:12:25.843Z,4.57
2023-03-24T08:14:52.528Z,3.50
2023-03-24T08:17:18.926Z,3.92
2023-03-24T08:19:58.244Z,3.75
2023-03-24T08:22:25.878Z,4.28
2023-03-24T08:24:52.394Z,3.88
2023-03-24T08:27:19.278Z,3.40
2023-03-24T08:29:45.966Z,3.47
2023-03-24T08:32:12.466Z,3.33
2023-03-24T08:34:38.858Z,3.63
2023-03-24T08:37:05.272Z,3.97
2023-03-24T08:39:31.677Z,3.40
2023-03-24T08:41:58.123Z,3.72
2023-03-24T08:44:24.489Z,4.00
2023-03-24T08:46:50.935Z,2.97
2023-03-24T08:49:17.532Z,3.70
2023-03-24T08:51:44.772Z,3.88
2023-03-24T08:54:11.493Z,3.75
2023-03-24T08:56:38.963Z,4.20
2023-03-24T08:59:07.125Z,4.25
2023-03-24T09:01:33.889Z,3.92
2023-03-24T09:04:00.309Z,4.45
2023-03-24T09:06:26.863Z,3.80
2023-03-24T09:08:54.685Z,4.20
2023-03-24T09:11:22.499Z,3.92
2023-03-24T09:13:49.517Z,3.53
2023-03-24T09:16:17.441Z,3.45
2023-03-24T09:18:44.586Z,3.70
2023-03-24T09:21:11.099Z,4.07
2023-03-24T09:23:37.576Z,3.55
2023-03-24T09:26:05.375Z,3.80
2023-03-24T09:28:32.136Z,4.30
2023-03-24T09:31:00.987Z,4.47
2023-03-24T09:33:27.637Z,3.60
2023-03-24T09:36:00.030Z,3.55
2023-03-24T09:38:27.775Z,3.28
2023-03-24T09:40:58.060Z,3.15
2023-03-24T09:43:31.738Z,3.75
2023-03-24T09:46:01.118Z,3.67
2023-03-24T09:48:36.926Z,2.95
2023-03-24T09:51:20.414Z,3.22
2023-03-24T09:53:52.900Z,2.58
2023-03-24T09:56:25.861Z,2.53
2023-03-24T09:59:04.352Z,2.58
2023-03-24T10:01:30.887Z,2.13
2023-03-24T10:04:00.207Z,2.58
2023-03-24T10:06:36.786Z,1.85
2023-03-24T10:09:20.811Z,2.00
2023-03-24T10:11:54.167Z,1.80
2023-03-24T10:14:44.128Z,2.00
2023-03-24T10:17:33.484Z,1.90
2023-03-24T10:20:06.181Z,1.95
2023-03-24T10:22:35.529Z,1.80
2023-03-24T10:25:23.911Z,1.90
2023-03-24T10:27:59.761Z,1.30
2023-03-24T10:30:33.264Z,1.52
2023-03-24T10:32:59.684Z,1.67
2023-03-24T10:35:30.553Z,1.52
2023-03-24T10:38:01.030Z,1.45
2023-03-24T10:40:33.192Z,1.58
2023-03-24T10:43:06.841Z,1.50
2023-03-24T10:45:39.415Z,1.35
2023-03-24T10:48:06.442Z,1.85
2023-03-24T10:50:33.694Z,1.67
2023-03-24T10:53:00.161Z,1.40
2023-03-24T10:55:35.514Z,1.30
2023-03-24T10:58:02.922Z,1.17
2023-03-24T11:00:31.408Z,1.35
2023-03-24T11:03:05.097Z,1.27
2023-03-24T11:05:37.586Z,1.52
2023-03-24T11:08:22.865Z,1.42
2023-03-24T11:10:52.116Z,1.35
2023-03-24T11:13:40.049Z,1.40
2023-03-24T11:16:15.420Z,1.15
2023-03-24T11:19:03.199Z,1.33
2023-03-24T11:21:33.149Z,1.20
2023-03-24T11:24:02.293Z,0.90
2023-03-24T11:26:33.943Z,1.13
2023-03-24T11:29:05.368Z,1.00
2023-03-24T11:31:34.414Z,1.20
2023-03-24T11:34:07.473Z,1.30
2023-03-24T11:36:44.038Z,1.00
2023-03-24T11:39:14.516Z,0.82
2023-03-24T11:41:59.868Z,0.90
2023-03-24T11:44:26.588Z,0.70
2023-03-24T11:47:00.535Z,0.95
2023-03-24T11:49:31.593Z,0.85
2023-03-24T11:51:58.947Z,0.90
2023-03-24T11:54:35.662Z,0.75
2023-03-24T11:57:16.496Z,0.70
2023-03-24T11:59:56.520Z,0.80
2023-03-24T12:02:47.860Z,0.77
2023-03-24T12:05:30.794Z,0.90
2023-03-24T12:08:03.597Z,1.45
2023-03-24T12:10:41.541Z,1.48
2023-03-24T12:13:31.814Z,0.90
2023-03-24T12:16:23.291Z,0.80
2023-03-24T12:21:52.949Z,1.20
2023-03-24T12:24:38.915Z,1.20
2023-03-24T12:27:05.279Z,0.73
2023-03-24T12:29:47.220Z,1.10
2023-03-24T12:32:24.237Z,1.00
2023-03-24T12:35:12.475Z,0.80
2023-03-24T12:37:57.050Z,0.80
2023-03-24T12:40:58.935Z,0.68
2023-03-24T12:44:03.543Z,0.73
2023-03-24T12:47:07.673Z,1.90
2023-03-24T12:49:52.384Z,0.65
2023-03-24T12:52:49.060Z,5.32
2023-03-24T12:55:38.232Z,2.55
2023-03-24T12:58:26.298Z,3.35
2023-03-24T13:01:05.202Z,2.00
2023-03-24T13:03:48.357Z,1.30
2023-03-24T13:06:24.434Z,1.70
2023-03-24T13:09:08.351Z,6.55
2023-03-24T13:11:43.164Z,3.20
2023-03-24T13:14:16.719Z,1.92
2023-03-24T13:16:47.695Z,2.05
2023-03-24T13:19:24.043Z,1.40
2023-03-24T13:21:54.387Z,1.58
2023-03-24T13:24:21.089Z,1.20
2023-03-24T13:27:01.101Z,1.75
2023-03-24T13:30:00.359Z,0.90
2023-03-24T13:32:36.129Z,1.85
2023-03-24T13:35:24.460Z,3.20
2023-03-24T13:37:55.325Z,2.67
2023-03-24T13:40:26.922Z,2.70
2023-03-24T13:42:57.115Z,1.40
2023-03-24T13:45:35.300Z,2.20
2023-03-24T13:48:09.599Z,1.65
2023-03-24T13:50:53.712Z,3.65
2023-03-24T13:53:30.833Z,8.63
2023-03-24T13:55:57.702Z,7.68
2023-03-24T13:58:26.449Z,2.85
2023-03-24T14:01:11.763Z,2.60
2023-03-24T14:03:41.643Z,2.55
2023-03-24T14:06:10.015Z,1.23
2023-03-24T14:08:55.678Z,1.23
2023-03-24T14:12:03.454Z,0.70
2023-03-24T14:14:30.589Z,0.80
2023-03-24T14:17:06.478Z,0.80
2023-03-24T14:19:38.629Z,0.60
2023-03-24T14:22:33.781Z,0.65
2023-03-24T14:25:22.624Z,0.90
2023-03-24T14:27:55.534Z,0.45
2023-03-24T14:30:28.518Z,0.60
2023-03-24T14:32:57.130Z,0.40
2023-03-24T14:35:44.877Z,0.50
2023-03-24T14:38:17.105Z,0.73
2023-03-24T14:40:46.654Z,0.80
2023-03-24T14:43:17.197Z,0.90
2023-03-24T14:45:53.889Z,0.80
2023-03-24T14:48:29.934Z,0.60
2023-03-24T14:51:03.482Z,0.70
2023-03-24T14:53:30.224Z,0.75
2023-03-24T14:55:57.106Z,0.70
2023-03-24T14:58:37.682Z,0.60
2023-03-24T15:01:07.872Z,0.82
2023-03-24T15:03:48.931Z,0.70
2023-03-24T15:08:54.145Z,0.30
2023-03-24T15:11:25.919Z,0.40
2023-03-24T15:13:54.844Z,0.60
2023-03-24T15:16:27.478Z,0.40
2023-03-24T15:19:02.094Z,0.80
2023-03-24T15:21:34.306Z,0.40
2023-03-24T15:24:02.273Z,0.40
2023-03-24T15:26:31.162Z,0.65
2023-03-24T15:29:04.487Z,0.60
2023-03-24T15:31:31.565Z,0.50
2023-03-24T15:34:05.592Z,0.68
2023-03-24T15:36:39.092Z,0.68
2023-03-24T15:39:20.272Z,0.80
2023-03-24T15:41:50.762Z,0.70
2023-03-24T15:44:19.542Z,0.85
2023-03-24T15:46:46.729Z,0.90
2023-03-24T15:49:25.892Z,0.52
2023-03-24T15:52:18.928Z,0.70
2023-03-24T15:54:45.707Z,0.70
2023-03-24T15:57:18.260Z,1.00
2023-03-24T16:00:14.104Z,1.67
2023-03-24T16:02:48.764Z,1.23
2023-03-24T16:05:21.348Z,1.48
2023-03-24T16:07:58.487Z,1.05
2023-03-24T16:10:26.839Z,1.15
2023-03-24T16:12:53.508Z,1.10
2023-03-24T16:15:19.929Z,1.33
2023-03-24T16:17:46.383Z,1.40
2023-03-24T16:20:20.227Z,1.60
2023-03-24T16:22:46.621Z,1.10
2023-03-24T16:25:14.979Z,1.05
2023-03-24T16:27:41.630Z,1.13
2023-03-24T16:30:19.984Z,0.90
2023-03-24T16:32:46.612Z,0.98
2023-03-24T16:35:13.324Z,1.08
2023-03-24T16:37:39.826Z,1.02
2023-03-24T16:40:25.492Z,1.80
2023-03-24T16:42:51.950Z,1.80
2023-03-24T16:45:18.481Z,1.90
2023-03-24T16:47:44.944Z,2.53
2023-03-24T16:50:23.557Z,1.70
2023-03-24T16:52:50.189Z,1.73
2023-03-24T16:55:16.608Z,1.58
2023-03-24T16:57:43.144Z,1.73
2023-03-24T17:00:10.364Z,1.60
2023-03-24T17:02:40.856Z,1.65
2023-03-24T17:05:29.649Z,1.60
2023-03-24T17:07:56.961Z,1.02
2023-03-24T17:10:25.254Z,1.30
2023-03-24T17:12:54.388Z,1.35
2023-03-24T17:15:24.867Z,1.65
2023-03-24T17:17:51.617Z,1.55
2023-03-24T17:20:19.355Z,1.30
2023-03-24T17:22:47.422Z,1.58
2023-03-24T17:25:22.428Z,1.50
2023-03-24T17:27:49.949Z,1.48
2023-03-24T17:30:21.796Z,1.80
2023-03-24T17:32:49.653Z,1.50
2023-03-24T17:35:18.863Z,1.50
2023-03-24T17:37:46.186Z,1.92
2023-03-24T17:40:14.636Z,2.30
2023-03-24T17:42:45.804Z,2.17
2023-03-24T17:45:15.680Z,2.25
2023-03-24T17:47:42.481Z,2.08
2023-03-24T17:50:09.559Z,1.20
2023-03-24T17:52:37.407Z,1.60
2023-03-24T17:55:05.039Z,1.20
2023-03-24T17:57:32.422Z,1.33
2023-03-24T17:59:59.097Z,1.63
2023-03-24T18:02:25.857Z,1.00
2023-03-24T18:04:52.371Z,1.45
2023-03-24T18:07:18.782Z,1.45
2023-03-24T18:09:45.595Z,1.45
2023-03-24T18:12:12.005Z,2.10
2023-03-24T18:14:38.509Z,1.63
2023-03-24T18:17:05.062Z,2.10
2023-03-24T18:19:31.551Z,2.05
2023-03-24T18:21:58.026Z,2.08
2023-03-24T18:24:24.516Z,2.10
2023-03-24T18:26:51.037Z,2.47
2023-03-24T18:29:17.772Z,1.95
2023-03-24T18:31:44.391Z,2.10
2023-03-24T18:34:10.886Z,1.80
2023-03-24T18:36:37.419Z,1.63
2023-03-24T18:39:09.198Z,1.70
2023-03-24T18:41:37.424Z,2.05
2023-03-24T18:44:07.041Z,2.08
2023-03-24T18:46:34.032Z,2.17
2023-03-24T18:49:00.577Z,2.22
2023-03-24T18:51:27.434Z,2.50
2023-03-24T18:53:53.948Z,2.40
2023-03-24T18:56:20.940Z,2.25
2023-03-24T18:58:48.339Z,2.85
2023-03-24T19:01:17.448Z,2.10
2023-03-24T19:03:44.835Z,1.85
2023-03-24T19:06:13.637Z,2.45
2023-03-24T19:08:42.906Z,2.03
2023-03-24T19:11:11.138Z,2.03
2023-03-24T19:13:38.352Z,1.77
2023-03-24T19:16:05.836Z,2.17
2023-03-24T19:18:32.578Z,2.20
2023-03-24T19:20:59.248Z,2.25
2023-03-24T19:23:26.667Z,2.40
2023-03-24T19:25:53.365Z,2.47
2023-03-24T19:28:19.805Z,2.35
2023-03-24T19:30:46.368Z,2.63
2023-03-24T19:33:12.984Z,2.00
2023-03-24T19:35:39.834Z,2.65
2023-03-24T19:38:06.378Z,2.20
2023-03-24T19:40:32.803Z,2.38
2023-03-24T19:42:59.327Z,1.70
2023-03-24T19:45:25.766Z,1.92
2023-03-24T19:47:52.565Z,2.20
2023-03-24T19:50:19.883Z,1.90
2023-03-24T19:52:46.407Z,2.00
2023-03-24T19:55:13.658Z,1.80
2023-03-24T19:57:41.208Z,2.10
2023-03-24T20:00:14.171Z,2.30
2023-03-24T20:02:41.633Z,2.13
2023-03-24T20:05:09.363Z,2.38
2023-03-24T20:07:36.190Z,2.10
2023-03-24T20:10:02.807Z,2.08
2023-03-24T20:12:29.206Z,1.98
2023-03-24T20:14:55.684Z,2.30
2023-03-24T20:17:23.869Z,2.03
2023-03-24T20:19:50.715Z,2.08
2023-03-24T20:22:17.566Z,2.50
2023-03-24T20:24:44.994Z,2.08
2023-03-24T20:27:12.347Z,1.60
2023-03-24T20:29:43.015Z,1.95
2023-03-24T20:32:09.637Z,2.08
2023-03-24T20:34:38.815Z,2.15
2023-03-24T20:37:07.731Z,1.77
2023-03-24T20:39:35.053Z,2.38
2023-03-24T20:42:01.529Z,1.98
2023-03-24T20:44:29.001Z,2.15
2023-03-24T20:46:58.830Z,1.90
2023-03-24T20:49:26.021Z,2.28
2023-03-24T20:51:53.480Z,1.90
2023-03-24T20:54:20.620Z,2.10
2023-03-24T20:56:48.021Z,1.92
2023-03-24T20:59:14.921Z,2.30
2023-03-24T21:01:41.604Z,1.80
2023-03-24T21:04:09.599Z,2.13
2023-03-24T21:06:39.369Z,1.90
2023-03-24T21:09:06.183Z,2.42
2023-03-24T21:11:33.062Z,2.17
2023-03-24T21:14:00.048Z,2.35
2023-03-24T21:16:27.286Z,2.72
2023-03-24T21:18:54.706Z,2.42
2023-03-24T21:21:21.588Z,2.35
2023-03-24T21:23:48.456Z,2.80
2023-03-24T21:26:16.710Z,3.40
2023-03-24T21:28:43.746Z,2.78
2023-03-24T21:31:16.519Z,2.53
2023-03-24T21:33:43.264Z,2.72
2023-03-24T21:36:12.921Z,2.67
2023-03-24T21:38:39.731Z,2.63
2023-03-24T21:41:07.090Z,2.75
2023-03-24T21:43:33.934Z,2.90
2023-03-24T21:46:00.915Z,2.63
2023-03-24T21:48:27.356Z,2.60
2023-03-24T21:50:55.130Z,2.30
2023-03-24T21:53:23.077Z,2.30
2023-03-24T21:55:53.434Z,2.25
2023-03-24T21:58:20.108Z,2.55
2023-03-24T22:00:47.841Z,1.50
2023-03-24T22:03:14.701Z,1.90
2023-03-24T22:05:41.320Z,1.95
2023-03-24T22:08:09.240Z,1.50
2023-03-24T22:10:36.633Z,1.60
2023-03-24T22:13:04.318Z,2.33
2023-03-24T22:15:33.336Z,2.15
2023-03-24T22:18:00.834Z,2.10
2023-03-24T22:20:27.471Z,1.70
2023-03-24T22:22:54.373Z,1.80
2023-03-24T22:25:21.182Z,1.95
2023-03-24T22:27:47.701Z,1.90
2023-03-24T22:30:15.063Z,1.70
2023-03-24T22:32:41.907Z,1.63
2023-03-24T22:35:08.786Z,1.77
2023-03-24T22:37:35.345Z,1.65
2023-03-24T22:40:03.268Z,1.77
2023-03-24T22:42:29.753Z,2.00
2023-03-24T22:44:56.544Z,1.52
2023-03-24T22:47:23.294Z,1.70
2023-03-24T22:49:49.695Z,1.90
2023-03-24T22:52:16.199Z,1.42
2023-03-24T22:54:42.664Z,3.28
2023-03-24T22:57:09.076Z,1.80
2023-03-24T22:59:35.457Z,1.52
2023-03-24T23:02:09.117Z,1.48
2023-03-24T23:04:36.140Z,1.55
2023-03-24T23:07:02.567Z,1.58
2023-03-24T23:09:29.107Z,1.63
2023-03-24T23:11:56.016Z,1.58
2023-03-24T23:14:22.498Z,1.42
2023-03-24T23:16:49.001Z,1.48
2023-03-24T23:19:15.347Z,1.17
2023-03-24T23:21:41.736Z,1.33
2023-03-24T23:24:08.287Z,1.27
2023-03-24T23:26:35.158Z,1.33
2023-03-24T23:29:01.480Z,1.30
2023-03-24T23:31:29.429Z,1.35
2023-03-24T23:33:57.070Z,1.30
2023-03-24T23:36:27.146Z,1.45
2023-03-24T23:38:54.410Z,1.05
2023-03-24T23:41:21.270Z,1.10
2023-03-24T23:43:49.207Z,0.80
2023-03-24T23:46:16.291Z,0.80
2023-03-24T23:48:43.042Z,0.70
2023-03-24T23:51:09.772Z,1.35
2023-03-24T23:53:36.808Z,1.38
2023-03-24T23:56:06.476Z,1.30
2023-03-24T23:58:38.464Z,1.38
